sensor_id;sensor_type;location;lat;lon;timestamp;pressure;altitude;pressure_sealevel;temperature;humidity
11415;BME280;5763;42.714;23.244;2023-07-13T00:02:24;94843.75;;;24.53;57.78
11415;BME280;5763;42.714;23.244;2023-07-13T00:04:52;94816.91;;;24.31;58.36
11415;BME280;5763;42.714;23.244;2023-07-13T00:07:19;94839.88;;;24.43;58.54
11415;BME280;5763;42.714;23.244;2023-07-13T00:09:48;94832.97;;;24.44;58.66
11415;BME280;5763;42.714;23.244;2023-07-13T00:12:26;94836.28;;;24.29;58.96
11415;BME280;5763;42.714;23.244;2023-07-13T00:14:55;94832.72;;;24.29;58.91
11415;BME280;5763;42.714;23.244;2023-07-13T00:17:22;94803.34;;;24.09;58.81
11415;BME280;5763;42.714;23.244;2023-07-13T00:19:49;94823.59;;;24.28;59.70
11415;BME280;5763;42.714;23.244;2023-07-13T00:22:17;94822.84;;;24.28;59.82
11415;BME280;5763;42.714;23.244;2023-07-13T00:24:44;94824.13;;;24.27;59.98
11415;BME280;5763;42.714;23.244;2023-07-13T00:27:12;94822.41;;;24.24;60.32
11415;BME280;5763;42.714;23.244;2023-07-13T00:29:39;94822.19;;;24.22;60.56
11415;BME280;5763;42.714;23.244;2023-07-13T00:32:07;94816.78;;;24.11;60.83
11415;BME280;5763;42.714;23.244;2023-07-13T00:34:35;94813.75;;;24.09;61.48
11415;BME280;5763;42.714;23.244;2023-07-13T00:37:02;94830.53;;;24.09;61.51
11415;BME280;5763;42.714;23.244;2023-07-13T00:39:28;94831.19;;;24.02;61.78
11415;BME280;5763;42.714;23.244;2023-07-13T00:41:55;94819.78;;;24.00;61.94
11415;BME280;5763;42.714;23.244;2023-07-13T00:44:23;94822.59;;;24.00;62.18
11415;BME280;5763;42.714;23.244;2023-07-13T00:46:50;94816.75;;;23.98;62.15
11415;BME280;5763;42.714;23.244;2023-07-13T00:49:20;94820.31;;;23.98;62.51
11415;BME280;5763;42.714;23.244;2023-07-13T00:51:49;94816.53;;;23.96;62.92
11415;BME280;5763;42.714;23.244;2023-07-13T00:54:20;94815.78;;;23.95;63.00
11415;BME280;5763;42.714;23.244;2023-07-13T00:56:50;94812.47;;;23.97;63.21
11415;BME280;5763;42.714;23.244;2023-07-13T00:59:20;94817.59;;;23.93;63.52
11415;BME280;5763;42.714;23.244;2023-07-13T01:01:49;94806.00;;;23.89;63.52
11415;BME280;5763;42.714;23.244;2023-07-13T01:04:17;94806.00;;;23.89;63.77
11415;BME280;5763;42.714;23.244;2023-07-13T01:06:45;94811.44;;;23.81;63.98
11415;BME280;5763;42.714;23.244;2023-07-13T01:09:13;94819.91;;;23.76;64.41
11415;BME280;5763;42.714;23.244;2023-07-13T01:11:41;94823.47;;;23.76;64.24
11415;BME280;5763;42.714;23.244;2023-07-13T01:14:08;94829.56;;;23.75;64.21
11415;BME280;5763;42.714;23.244;2023-07-13T01:16:36;94829.56;;;23.75;64.52
11415;BME280;5763;42.714;23.244;2023-07-13T01:19:12;94825.81;;;23.72;65.09
11415;BME280;5763;42.714;23.244;2023-07-13T01:21:43;94813.00;;;23.64;65.11
11415;BME280;5763;42.714;23.244;2023-07-13T01:24:10;94817.59;;;23.61;65.12
11415;BME280;5763;42.714;23.244;2023-07-13T01:26:37;94811.03;;;23.59;63.84
11415;BME280;5763;42.714;23.244;2023-07-13T01:29:04;94809.75;;;23.60;63.18
11415;BME280;5763;42.714;23.244;2023-07-13T01:31:30;94804.53;;;23.51;63.30
11415;BME280;5763;42.714;23.244;2023-07-13T01:33:57;94806.03;;;23.52;63.36
11415;BME280;5763;42.714;23.244;2023-07-13T01:36:24;94805.38;;;23.46;64.67
11415;BME280;5763;42.714;23.244;2023-07-13T01:38:52;94810.06;;;23.56;64.84
11415;BME280;5763;42.714;23.244;2023-07-13T01:41:19;94799.72;;;23.51;65.32
11415;BME280;5763;42.714;23.244;2023-07-13T01:43:46;94805.06;;;23.49;65.48
11415;BME280;5763;42.714;23.244;2023-07-13T01:46:12;94797.63;;;23.39;65.34
11415;BME280;5763;42.714;23.244;2023-07-13T01:48:39;94798.66;;;23.36;64.73
11415;BME280;5763;42.714;23.244;2023-07-13T01:51:06;94800.31;;;23.44;64.88
11415;BME280;5763;42.714;23.244;2023-07-13T01:53:33;94795.56;;;23.39;65.55
11415;BME280;5763;42.714;23.244;2023-07-13T01:56:01;94801.47;;;23.36;65.51
11415;BME280;5763;42.714;23.244;2023-07-13T01:58:28;94799.50;;;23.31;66.08
11415;BME280;5763;42.714;23.244;2023-07-13T02:00:54;94804.56;;;23.32;66.08
11415;BME280;5763;42.714;23.244;2023-07-13T02:03:21;94772.63;;;23.09;66.18
11415;BME280;5763;42.714;23.244;2023-07-13T02:05:48;94809.78;;;23.23;66.60
11415;BME280;5763;42.714;23.244;2023-07-13T02:08:15;94803.47;;;23.17;67.30
11415;BME280;5763;42.714;23.244;2023-07-13T02:10:41;94816.63;;;23.22;67.13
11415;BME280;5763;42.714;23.244;2023-07-13T02:13:09;94816.44;;;23.20;67.47
11415;BME280;5763;42.714;23.244;2023-07-13T02:15:38;94812.81;;;23.25;67.46
11415;BME280;5763;42.714;23.244;2023-07-13T02:18:05;94814.63;;;23.22;67.39
11415;BME280;5763;42.714;23.244;2023-07-13T02:20:32;94812.69;;;23.12;68.11
11415;BME280;5763;42.714;23.244;2023-07-13T02:22:59;94810.97;;;23.09;68.34
11415;BME280;5763;42.714;23.244;2023-07-13T02:25:26;94817.84;;;23.08;68.32
11415;BME280;5763;42.714;23.244;2023-07-13T02:27:52;94816.03;;;23.10;68.19
11415;BME280;5763;42.714;23.244;2023-07-13T02:30:20;94815.63;;;23.01;68.76
11415;BME280;5763;42.714;23.244;2023-07-13T02:32:50;94820.53;;;22.95;68.62
11415;BME280;5763;42.714;23.244;2023-07-13T02:35:17;94826.13;;;22.95;68.10
11415;BME280;5763;42.714;23.244;2023-07-13T02:37:43;94823.34;;;22.95;67.83
11415;BME280;5763;42.714;23.244;2023-07-13T02:40:10;94824.94;;;22.90;68.13
11415;BME280;5763;42.714;23.244;2023-07-13T02:42:37;94824.16;;;22.90;68.29
11415;BME280;5763;42.714;23.244;2023-07-13T02:45:05;94829.91;;;22.97;68.26
11415;BME280;5763;42.714;23.244;2023-07-13T02:47:33;94827.19;;;22.92;68.24
11415;BME280;5763;42.714;23.244;2023-07-13T02:50:00;94829.28;;;22.86;67.87
11415;BME280;5763;42.714;23.244;2023-07-13T02:52:27;94821.66;;;22.86;68.32
11415;BME280;5763;42.714;23.244;2023-07-13T02:54:54;94823.47;;;22.84;69.02
11415;BME280;5763;42.714;23.244;2023-07-13T02:57:21;94801.88;;;22.66;68.96
11415;BME280;5763;42.714;23.244;2023-07-13T02:59:47;94837.44;;;22.84;68.96
11415;BME280;5763;42.714;23.244;2023-07-13T03:02:15;94831.03;;;22.89;68.80
11415;BME280;5763;42.714;23.244;2023-07-13T03:04:43;94836.38;;;22.87;69.52
11415;BME280;5763;42.714;23.244;2023-07-13T03:07:10;94833.59;;;22.87;69.33
11415;BME280;5763;42.714;23.244;2023-07-13T03:09:38;94835.63;;;22.86;69.70
11415;BME280;5763;42.714;23.244;2023-07-13T03:12:06;94838.19;;;22.84;70.23
11415;BME280;5763;42.714;23.244;2023-07-13T03:14:32;94839.19;;;22.87;70.25
11415;BME280;5763;42.714;23.244;2023-07-13T03:16:59;94832.63;;;22.84;70.46
11415;BME280;5763;42.714;23.244;2023-07-13T03:19:26;94829.88;;;22.79;70.53
11415;BME280;5763;42.714;23.244;2023-07-13T03:21:54;94829.88;;;22.79;71.10
11415;BME280;5763;42.714;23.244;2023-07-13T03:24:21;94835.25;;;22.77;71.48
11415;BME280;5763;42.714;23.244;2023-07-13T03:26:51;94836.28;;;22.74;71.48
11415;BME280;5763;42.714;23.244;2023-07-13T03:29:18;94832.00;;;22.73;71.60
11415;BME280;5763;42.714;23.244;2023-07-13T03:31:45;94839.03;;;22.79;71.78
11415;BME280;5763;42.714;23.244;2023-07-13T03:34:11;94849.19;;;22.77;71.25
11415;BME280;5763;42.714;23.244;2023-07-13T03:36:38;94844.34;;;22.77;71.86
11415;BME280;5763;42.714;23.244;2023-07-13T03:39:06;94844.34;;;22.77;71.99
11415;BME280;5763;42.714;23.244;2023-07-13T03:41:34;94839.44;;;22.65;71.79
11415;BME280;5763;42.714;23.244;2023-07-13T03:44:01;94838.56;;;22.75;70.58
11415;BME280;5763;42.714;23.244;2023-07-13T03:46:28;94841.66;;;22.72;70.63
11415;BME280;5763;42.714;23.244;2023-07-13T03:48:54;94843.84;;;22.79;70.42
11415;BME280;5763;42.714;23.244;2023-07-13T03:51:21;94837.78;;;22.75;71.28
11415;BME280;5763;42.714;23.244;2023-07-13T03:53:48;94847.91;;;22.78;71.60
11415;BME280;5763;42.714;23.244;2023-07-13T03:56:17;94840.75;;;22.82;72.06
11415;BME280;5763;42.714;23.244;2023-07-13T03:58:46;94839.91;;;22.87;71.73
11415;BME280;5763;42.714;23.244;2023-07-13T04:01:14;94831.03;;;22.89;70.96
11415;BME280;5763;42.714;23.244;2023-07-13T04:03:41;94812.44;;;22.73;71.43
11415;BME280;5763;42.714;23.244;2023-07-13T04:06:14;94841.38;;;22.94;71.03
11415;BME280;5763;42.714;23.244;2023-07-13T04:08:47;94835.25;;;22.95;70.62
11415;BME280;5763;42.714;23.244;2023-07-13T04:11:16;94834.75;;;22.97;70.65
11415;BME280;5763;42.714;23.244;2023-07-13T04:13:42;94832.63;;;23.03;71.28
11415;BME280;5763;42.714;23.244;2023-07-13T04:16:09;94826.88;;;22.95;70.65
11415;BME280;5763;42.714;23.244;2023-07-13T04:18:36;94838.94;;;23.03;70.44
11415;BME280;5763;42.714;23.244;2023-07-13T04:21:03;94849.00;;;23.12;69.94
11415;BME280;5763;42.714;23.244;2023-07-13T04:23:30;94851.78;;;23.12;69.75
11415;BME280;5763;42.714;23.244;2023-07-13T04:25:56;94854.47;;;23.23;69.65
11415;BME280;5763;42.714;23.244;2023-07-13T04:28:26;94846.63;;;23.21;70.23
11415;BME280;5763;42.714;23.244;2023-07-13T04:30:53;94853.34;;;23.31;70.59
11415;BME280;5763;42.714;23.244;2023-07-13T04:33:20;94848.72;;;23.34;71.26
11415;BME280;5763;42.714;23.244;2023-07-13T04:35:47;94856.50;;;23.41;71.21
11415;BME280;5763;42.714;23.244;2023-07-13T04:38:15;94856.75;;;23.43;71.86
11415;BME280;5763;42.714;23.244;2023-07-13T04:40:42;94859.53;;;23.43;71.58
11415;BME280;5763;42.714;23.244;2023-07-13T04:43:09;94863.00;;;23.49;71.67
11415;BME280;5763;42.714;23.244;2023-07-13T04:45:37;94863.44;;;23.53;72.01
11415;BME280;5763;42.714;23.244;2023-07-13T04:48:05;94857.41;;;23.49;72.63
11415;BME280;5763;42.714;23.244;2023-07-13T04:50:32;94872.25;;;23.57;71.63
11415;BME280;5763;42.714;23.244;2023-07-13T04:52:58;94871.44;;;23.62;70.01
11415;BME280;5763;42.714;23.244;2023-07-13T04:55:25;94878.09;;;23.59;70.81
11415;BME280;5763;42.714;23.244;2023-07-13T04:57:56;94878.84;;;23.59;70.54
11415;BME280;5763;42.714;23.244;2023-07-13T05:00:23;94879.28;;;23.63;69.76
11415;BME280;5763;42.714;23.244;2023-07-13T05:02:54;94877.47;;;23.66;69.45
11415;BME280;5763;42.714;23.244;2023-07-13T05:05:21;94882.44;;;23.73;69.74
11415;BME280;5763;42.714;23.244;2023-07-13T05:07:47;94882.91;;;23.77;69.61
11415;BME280;5763;42.714;23.244;2023-07-13T05:10:14;94884.84;;;23.82;69.59
11415;BME280;5763;42.714;23.244;2023-07-13T05:12:41;94881.84;;;23.80;69.51
11415;BME280;5763;42.714;23.244;2023-07-13T05:15:10;94880.41;;;23.92;69.32
11415;BME280;5763;42.714;23.244;2023-07-13T05:17:37;94886.44;;;23.96;69.56
11415;BME280;5763;42.714;23.244;2023-07-13T05:20:07;94882.88;;;23.95;69.08
11415;BME280;5763;42.714;23.244;2023-07-13T05:22:34;94885.69;;;23.95;68.42
11415;BME280;5763;42.714;23.244;2023-07-13T05:25:01;94880.00;;;24.01;67.87
11415;BME280;5763;42.714;23.244;2023-07-13T05:27:28;94890.88;;;24.04;67.17
11415;BME280;5763;42.714;23.244;2023-07-13T05:29:55;94890.34;;;24.06;67.67
11415;BME280;5763;42.714;23.244;2023-07-13T05:32:22;94887.69;;;24.13;67.18
11415;BME280;5763;42.714;23.244;2023-07-13T05:34:48;94891.34;;;24.21;67.27
11415;BME280;5763;42.714;23.244;2023-07-13T05:37:17;94887.81;;;24.21;67.13
11415;BME280;5763;42.714;23.244;2023-07-13T05:39:43;94892.44;;;24.18;67.82
11415;BME280;5763;42.714;23.244;2023-07-13T05:42:10;94897.72;;;24.22;67.83
11415;BME280;5763;42.714;23.244;2023-07-13T05:44:37;94893.31;;;24.26;67.31
11415;BME280;5763;42.714;23.244;2023-07-13T05:47:04;94906.25;;;24.29;67.30
11415;BME280;5763;42.714;23.244;2023-07-13T05:49:31;94896.56;;;24.30;67.63
11415;BME280;5763;42.714;23.244;2023-07-13T05:51:58;94886.88;;;24.31;68.28
11415;BME280;5763;42.714;23.244;2023-07-13T05:54:27;94884.19;;;24.39;68.38
11415;BME280;5763;42.714;23.244;2023-07-13T05:56:53;94882.59;;;24.43;68.66
11415;BME280;5763;42.714;23.244;2023-07-13T05:59:20;94872.50;;;24.53;68.61
11415;BME280;5763;42.714;23.244;2023-07-13T06:01:47;94874.72;;;24.55;69.46
11415;BME280;5763;42.714;23.244;2023-07-13T06:04:14;94875.28;;;24.53;69.19
11415;BME280;5763;42.714;23.244;2023-07-13T06:06:40;94883.91;;;24.55;69.33
11415;BME280;5763;42.714;23.244;2023-07-13T06:09:07;94890.69;;;24.60;69.68
11415;BME280;5763;42.714;23.244;2023-07-13T06:11:35;94892.34;;;24.68;69.24
11415;BME280;5763;42.714;23.244;2023-07-13T06:14:02;94889.00;;;24.70;69.11
11415;BME280;5763;42.714;23.244;2023-07-13T06:16:30;94886.09;;;24.75;68.24
11415;BME280;5763;42.714;23.244;2023-07-13T06:18:56;94884.72;;;24.82;67.38
11415;BME280;5763;42.714;23.244;2023-07-13T06:21:23;94894.50;;;24.88;67.65
11415;BME280;5763;42.714;23.244;2023-07-13T06:23:51;94900.97;;;24.96;67.98
11415;BME280;5763;42.714;23.244;2023-07-13T06:26:18;94896.53;;;25.01;67.49
11415;BME280;5763;42.714;23.244;2023-07-13T06:28:47;94899.78;;;25.05;67.02
11415;BME280;5763;42.714;23.244;2023-07-13T06:31:14;94888.25;;;25.08;66.81
11415;BME280;5763;42.714;23.244;2023-07-13T06:33:42;94894.50;;;25.14;66.75
11415;BME280;5763;42.714;23.244;2023-07-13T06:36:09;94888.25;;;25.21;65.23
11415;BME280;5763;42.714;23.244;2023-07-13T06:38:36;94889.22;;;25.24;64.65
11415;BME280;5763;42.714;23.244;2023-07-13T06:41:04;94884.59;;;25.26;63.01
11415;BME280;5763;42.714;23.244;2023-07-13T06:43:31;94883.94;;;25.33;63.17
11415;BME280;5763;42.714;23.244;2023-07-13T06:45:59;94888.47;;;25.36;62.85
11415;BME280;5763;42.714;23.244;2023-07-13T06:48:27;94888.03;;;25.45;61.67
11415;BME280;5763;42.714;23.244;2023-07-13T06:50:54;94883.38;;;25.48;61.54
11415;BME280;5763;42.714;23.244;2023-07-13T06:53:21;94889.81;;;25.56;61.37
11415;BME280;5763;42.714;23.244;2023-07-13T06:55:48;94898.22;;;25.56;61.43
11415;BME280;5763;42.714;23.244;2023-07-13T06:58:16;94888.50;;;25.70;61.25
11415;BME280;5763;42.714;23.244;2023-07-13T07:00:43;94889.31;;;25.78;61.69
11415;BME280;5763;42.714;23.244;2023-07-13T07:03:12;94888.13;;;25.86;60.73
11415;BME280;5763;42.714;23.244;2023-07-13T07:05:39;94887.25;;;25.91;60.07
11415;BME280;5763;42.714;23.244;2023-07-13T07:08:05;94888.84;;;26.00;59.57
11415;BME280;5763;42.714;23.244;2023-07-13T07:10:33;94884.47;;;26.12;59.04
11415;BME280;5763;42.714;23.244;2023-07-13T07:13:00;94880.75;;;26.17;58.84
11415;BME280;5763;42.714;23.244;2023-07-13T07:15:27;94873.56;;;26.29;58.68
11415;BME280;5763;42.714;23.244;2023-07-13T07:17:54;94877.41;;;26.39;59.13
11415;BME280;5763;42.714;23.244;2023-07-13T07:20:22;94882.88;;;26.44;59.18
11415;BME280;5763;42.714;23.244;2023-07-13T07:22:49;94877.75;;;26.56;57.95
11415;BME280;5763;42.714;23.244;2023-07-13T07:25:16;94878.91;;;26.60;57.80
11415;BME280;5763;42.714;23.244;2023-07-13T07:27:43;94868.09;;;26.64;56.92
11415;BME280;5763;42.714;23.244;2023-07-13T07:30:11;94873.22;;;26.73;56.54
11415;BME280;5763;42.714;23.244;2023-07-13T07:32:38;94877.56;;;26.82;56.50
11415;BME280;5763;42.714;23.244;2023-07-13T07:35:05;94871.78;;;26.87;56.76
11415;BME280;5763;42.714;23.244;2023-07-13T07:37:33;94864.91;;;26.96;56.49
11415;BME280;5763;42.714;23.244;2023-07-13T07:40:00;94862.53;;;27.07;57.17
11415;BME280;5763;42.714;23.244;2023-07-13T07:42:27;94858.47;;;27.16;56.71
11415;BME280;5763;42.714;23.244;2023-07-13T07:44:54;94858.94;;;27.27;55.93
11415;BME280;5763;42.714;23.244;2023-07-13T07:47:21;94858.22;;;27.34;56.44
11415;BME280;5763;42.714;23.244;2023-07-13T07:49:49;94865.56;;;27.45;57.55
11415;BME280;5763;42.714;23.244;2023-07-13T07:52:16;94858.13;;;27.55;56.71
11415;BME280;5763;42.714;23.244;2023-07-13T07:54:44;94858.13;;;27.62;56.43
11415;BME280;5763;42.714;23.244;2023-07-13T07:57:11;94852.72;;;27.72;55.83
11415;BME280;5763;42.714;23.244;2023-07-13T07:59:37;94844.84;;;27.78;55.70
11415;BME280;5763;42.714;23.244;2023-07-13T08:02:05;94843.97;;;27.83;55.37
11415;BME280;5763;42.714;23.244;2023-07-13T08:04:32;94836.59;;;27.72;55.21
11415;BME280;5763;42.714;23.244;2023-07-13T08:06:59;94833.31;;;28.04;55.20
11415;BME280;5763;42.714;23.244;2023-07-13T08:09:28;94841.78;;;28.11;55.69
11415;BME280;5763;42.714;23.244;2023-07-13T08:11:56;94844.56;;;28.19;55.48
11415;BME280;5763;42.714;23.244;2023-07-13T08:14:22;94833.13;;;28.24;55.87
11415;BME280;5763;42.714;23.244;2023-07-13T08:16:50;94800.13;;;28.10;56.79
11415;BME280;5763;42.714;23.244;2023-07-13T08:19:16;94823.75;;;28.37;57.00
11415;BME280;5763;42.714;23.244;2023-07-13T08:21:43;94826.97;;;28.48;57.27
11415;BME280;5763;42.714;23.244;2023-07-13T08:24:10;94822.66;;;28.55;55.89
11415;BME280;5763;42.714;23.244;2023-07-13T08:26:37;94821.91;;;28.62;56.21
11415;BME280;5763;42.714;23.244;2023-07-13T08:29:05;94826.38;;;28.72;55.62
11415;BME280;5763;42.714;23.244;2023-07-13T08:31:32;94809.47;;;28.72;55.56
11415;BME280;5763;42.714;23.244;2023-07-13T08:33:59;94810.78;;;28.79;55.76
11415;BME280;5763;42.714;23.244;2023-07-13T08:36:25;94819.22;;;28.86;54.37
11415;BME280;5763;42.714;23.244;2023-07-13T08:38:53;94809.25;;;28.93;53.20
11415;BME280;5763;42.714;23.244;2023-07-13T08:41:21;94813.56;;;29.01;53.93
11415;BME280;5763;42.714;23.244;2023-07-13T08:43:49;94809.78;;;29.14;54.22
11415;BME280;5763;42.714;23.244;2023-07-13T08:46:23;94782.53;;;29.09;51.46
11415;BME280;5763;42.714;23.244;2023-07-13T08:48:52;94817.22;;;29.34;51.31
11415;BME280;5763;42.714;23.244;2023-07-13T08:51:28;94812.13;;;29.40;51.82
11415;BME280;5763;42.714;23.244;2023-07-13T08:54:00;94821.63;;;29.52;52.53
11415;BME280;5763;42.714;23.244;2023-07-13T08:56:29;94820.50;;;29.62;52.29
11415;BME280;5763;42.714;23.244;2023-07-13T08:59:02;94826.09;;;29.70;53.26
11415;BME280;5763;42.714;23.244;2023-07-13T09:01:47;94833.00;;;29.84;53.99
11415;BME280;5763;42.714;23.244;2023-07-13T09:04:19;94838.19;;;29.95;54.65
11415;BME280;5763;42.714;23.244;2023-07-13T09:06:55;94847.34;;;30.03;54.96
11415;BME280;5763;42.714;23.244;2023-07-13T09:09:31;94839.63;;;30.11;53.61
11415;BME280;5763;42.714;23.244;2023-07-13T09:12:14;94843.47;;;30.23;53.80
11415;BME280;5763;42.714;23.244;2023-07-13T09:14:45;94829.81;;;30.36;53.75
11415;BME280;5763;42.714;23.244;2023-07-13T09:17:18;94810.28;;;30.31;53.91
11415;BME280;5763;42.714;23.244;2023-07-13T09:19:48;94836.81;;;30.60;52.55
11415;BME280;5763;42.714;23.244;2023-07-13T09:22:20;94838.19;;;30.76;51.88
11415;BME280;5763;42.714;23.244;2023-07-13T09:24:54;94831.84;;;30.85;44.27
11415;BME280;5763;42.714;23.244;2023-07-13T09:27:25;94840.72;;;31.06;41.92
11415;BME280;5763;42.714;23.244;2023-07-13T09:29:58;94844.31;;;31.23;36.94
11415;BME280;5763;42.714;23.244;2023-07-13T09:32:29;94840.81;;;31.32;37.27
11415;BME280;5763;42.714;23.244;2023-07-13T09:34:57;94845.56;;;31.47;34.54
11415;BME280;5763;42.714;23.244;2023-07-13T09:37:30;94843.56;;;31.57;34.19
11415;BME280;5763;42.714;23.244;2023-07-13T09:39:58;94830.03;;;31.65;34.03
11415;BME280;5763;42.714;23.244;2023-07-13T09:42:26;94832.22;;;31.74;33.27
11415;BME280;5763;42.714;23.244;2023-07-13T09:44:55;94829.88;;;31.80;34.62
11415;BME280;5763;42.714;23.244;2023-07-13T09:47:24;94823.09;;;31.92;32.79
11415;BME280;5763;42.714;23.244;2023-07-13T09:49:58;94827.06;;;32.06;32.09
11415;BME280;5763;42.714;23.244;2023-07-13T09:52:25;94816.63;;;32.09;31.34
11415;BME280;5763;42.714;23.244;2023-07-13T09:54:54;94814.28;;;32.24;31.70
11415;BME280;5763;42.714;23.244;2023-07-13T09:57:26;94819.88;;;32.32;31.50
11415;BME280;5763;42.714;23.244;2023-07-13T09:59:55;94794.25;;;32.39;32.58
11415;BME280;5763;42.714;23.244;2023-07-13T10:02:26;94810.56;;;32.58;32.64
11415;BME280;5763;42.714;23.244;2023-07-13T10:04:59;94790.91;;;32.69;31.52
11415;BME280;5763;42.714;23.244;2023-07-13T10:07:27;94794.69;;;32.81;32.20
11415;BME280;5763;42.714;23.244;2023-07-13T10:09:54;94784.69;;;32.90;31.71
11415;BME280;5763;42.714;23.244;2023-07-13T10:12:22;94793.06;;;33.07;30.13
11415;BME280;5763;42.714;23.244;2023-07-13T10:14:51;94805.19;;;33.17;30.53
11415;BME280;5763;42.714;23.244;2023-07-13T10:17:26;94806.97;;;33.22;29.97
11415;BME280;5763;42.714;23.244;2023-07-13T10:19:58;94805.50;;;33.30;30.75
11415;BME280;5763;42.714;23.244;2023-07-13T10:22:31;94800.56;;;33.40;30.56
11415;BME280;5763;42.714;23.244;2023-07-13T10:25:04;94798.78;;;33.54;29.76
11415;BME280;5763;42.714;23.244;2023-07-13T10:27:36;94795.75;;;33.71;29.10
11415;BME280;5763;42.714;23.244;2023-07-13T10:30:11;94792.44;;;33.75;27.64
11415;BME280;5763;42.714;23.244;2023-07-13T10:32:39;94784.69;;;33.85;28.15
11415;BME280;5763;42.714;23.244;2023-07-13T10:35:11;94778.13;;;33.73;27.69
11415;BME280;5763;42.714;23.244;2023-07-13T10:37:43;94784.97;;;33.89;27.79
11415;BME280;5763;42.714;23.244;2023-07-13T10:40:13;94781.63;;;34.02;27.44
11415;BME280;5763;42.714;23.244;2023-07-13T10:42:44;94774.13;;;34.16;27.72
11415;BME280;5763;42.714;23.244;2023-07-13T10:45:14;94774.41;;;34.20;27.57
11415;BME280;5763;42.714;23.244;2023-07-13T10:47:42;94768.97;;;34.33;26.71
11415;BME280;5763;42.714;23.244;2023-07-13T10:50:15;94771.16;;;34.44;26.08
11415;BME280;5763;42.714;23.244;2023-07-13T10:52:46;94758.44;;;34.45;26.05
11415;BME280;5763;42.714;23.244;2023-07-13T10:55:31;94752.56;;;34.53;26.46
11415;BME280;5763;42.714;23.244;2023-07-13T10:58:00;94755.91;;;34.70;25.73
11415;BME280;5763;42.714;23.244;2023-07-13T11:00:31;94746.00;;;34.81;25.94
11415;BME280;5763;42.714;23.244;2023-07-13T11:03:00;94744.63;;;34.82;26.35
11415;BME280;5763;42.714;23.244;2023-07-13T11:05:32;94742.88;;;34.98;25.81
11415;BME280;5763;42.714;23.244;2023-07-13T11:08:12;94739.59;;;35.13;26.32
11415;BME280;5763;42.714;23.244;2023-07-13T11:10:49;94732.22;;;35.19;24.62
11415;BME280;5763;42.714;23.244;2023-07-13T11:13:36;94732.16;;;35.29;25.33
11415;BME280;5763;42.714;23.244;2023-07-13T11:16:13;94735.13;;;35.31;26.28
11415;BME280;5763;42.714;23.244;2023-07-13T11:18:39;94736.91;;;35.36;24.82
11415;BME280;5763;42.714;23.244;2023-07-13T11:21:19;94726.53;;;35.52;25.51
11415;BME280;5763;42.714;23.244;2023-07-13T11:23:52;94726.78;;;35.56;25.96
11415;BME280;5763;42.714;23.244;2023-07-13T11:26:40;94728.44;;;35.70;25.38
11415;BME280;5763;42.714;23.244;2023-07-13T11:29:25;94716.19;;;35.68;25.52
11415;BME280;5763;42.714;23.244;2023-07-13T11:31:54;94719.69;;;35.78;24.38
11415;BME280;5763;42.714;23.244;2023-07-13T11:34:27;94721.78;;;35.77;24.09
11415;BME280;5763;42.714;23.244;2023-07-13T11:36:57;94714.09;;;35.80;24.58
11415;BME280;5763;42.714;23.244;2023-07-13T11:39:29;94717.47;;;35.88;24.62
11415;BME280;5763;42.714;23.244;2023-07-13T11:42:00;94722.31;;;36.08;24.43
11415;BME280;5763;42.714;23.244;2023-07-13T11:44:29;94717.84;;;36.17;24.76
11415;BME280;5763;42.714;23.244;2023-07-13T11:46:57;94677.47;;;36.09;25.05
11415;BME280;5763;42.714;23.244;2023-07-13T11:49:30;94701.41;;;36.27;24.61
11415;BME280;5763;42.714;23.244;2023-07-13T11:51:59;94704.88;;;36.37;24.72
11415;BME280;5763;42.714;23.244;2023-07-13T11:54:30;94708.56;;;36.51;24.34
11415;BME280;5763;42.714;23.244;2023-07-13T11:56:58;94700.91;;;36.65;25.07
11415;BME280;5763;42.714;23.244;2023-07-13T11:59:27;94702.13;;;36.73;25.73
11415;BME280;5763;42.714;23.244;2023-07-13T12:01:56;94693.53;;;36.85;25.33
11415;BME280;5763;42.714;23.244;2023-07-13T12:04:26;94686.22;;;36.82;25.74
11415;BME280;5763;42.714;23.244;2023-07-13T12:06:56;94691.53;;;36.87;25.97
11415;BME280;5763;42.714;23.244;2023-07-13T12:09:26;94692.50;;;36.92;25.05
11415;BME280;5763;42.714;23.244;2023-07-13T12:11:56;94685.78;;;36.99;23.90
11415;BME280;5763;42.714;23.244;2023-07-13T12:14:23;94675.13;;;36.99;24.38
11415;BME280;5763;42.714;23.244;2023-07-13T12:16:52;94684.53;;;37.02;24.23
11415;BME280;5763;42.714;23.244;2023-07-13T12:19:22;94678.44;;;37.07;23.80
11415;BME280;5763;42.714;23.244;2023-07-13T12:21:50;94670.59;;;37.08;24.55
11415;BME280;5763;42.714;23.244;2023-07-13T12:24:21;94657.72;;;37.07;24.12
11415;BME280;5763;42.714;23.244;2023-07-13T12:26:55;94668.13;;;37.14;23.54
11415;BME280;5763;42.714;23.244;2023-07-13T12:29:25;94662.66;;;37.18;23.32
11415;BME280;5763;42.714;23.244;2023-07-13T12:31:52;94653.47;;;37.19;23.60
11415;BME280;5763;42.714;23.244;2023-07-13T12:34:20;94653.50;;;37.33;24.19
11415;BME280;5763;42.714;23.244;2023-07-13T12:36:50;94636.38;;;37.33;24.67
11415;BME280;5763;42.714;23.244;2023-07-13T12:39:19;94639.22;;;37.33;24.69
11415;BME280;5763;42.714;23.244;2023-07-13T12:41:47;94634.91;;;37.32;25.55
11415;BME280;5763;42.714;23.244;2023-07-13T12:44:18;94631.97;;;37.43;24.19
11415;BME280;5763;42.714;23.244;2023-07-13T12:46:59;94636.63;;;37.50;24.29
11415;BME280;5763;42.714;23.244;2023-07-13T12:49:31;94633.56;;;37.46;23.78
11415;BME280;5763;42.714;23.244;2023-07-13T12:52:02;94629.06;;;37.55;24.24
11415;BME280;5763;42.714;23.244;2023-07-13T12:54:30;94643.47;;;37.57;24.34
11415;BME280;5763;42.714;23.244;2023-07-13T12:56:59;94625.44;;;37.54;24.66
11415;BME280;5763;42.714;23.244;2023-07-13T12:59:31;94622.88;;;37.47;24.59
11415;BME280;5763;42.714;23.244;2023-07-13T13:02:02;94615.09;;;37.61;24.38
11415;BME280;5763;42.714;23.244;2023-07-13T13:04:30;94612.38;;;37.63;23.49
11415;BME280;5763;42.714;23.244;2023-07-13T13:07:03;94615.41;;;37.53;24.45
11415;BME280;5763;42.714;23.244;2023-07-13T13:09:32;94613.38;;;37.56;23.57